createdAt,value
2019-04-30T00:00:17.988Z,18.28
2019-04-30T00:01:18.885Z,18.25
2019-04-30T00:02:17.852Z,18.18
2019-04-30T00:03:19.673Z,18.19
2019-04-30T00:05:05.352Z,18.18
2019-04-30T00:06:07.193Z,18.16
2019-04-30T00:07:10.160Z,18.20
2019-04-30T00:08:07.444Z,18.08
2019-04-30T00:09:53.894Z,18.26
2019-04-30T00:10:55.536Z,18.20
2019-04-30T00:12:01.023Z,18.18
2019-04-30T00:12:57.380Z,18.16
2019-04-30T00:14:42.415Z,18.15
2019-04-30T00:15:42.990Z,18.20
2019-04-30T00:16:45.111Z,18.16
2019-04-30T00:17:45.713Z,18.08
2019-04-30T00:19:31.159Z,18.18
2019-04-30T00:20:37.211Z,18.13
2019-04-30T00:21:33.300Z,18.13
2019-04-30T00:22:34.477Z,18.15
2019-04-30T00:24:19.906Z,18.07
2019-04-30T00:25:24.957Z,18.05
2019-04-30T00:26:22.098Z,18.18
2019-04-30T00:27:28.292Z,18.01
2019-04-30T00:29:08.802Z,18.07
2019-04-30T00:30:09.381Z,18.13
2019-04-30T00:31:10.018Z,18.07
2019-04-30T00:32:10.577Z,18.15
2019-04-30T00:33:57.839Z,18.08
2019-04-30T00:34:57.741Z,18.10
2019-04-30T00:35:58.306Z,18.11
2019-04-30T00:36:58.882Z,18.08
2019-04-30T00:38:44.794Z,18.28
2019-04-30T00:39:50.997Z,18.16
2019-04-30T00:40:46.969Z,18.11
2019-04-30T00:41:47.636Z,18.07
2019-04-30T00:43:32.819Z,18.08
2019-04-30T00:44:33.391Z,18.07
2019-04-30T00:45:35.321Z,18.15
2019-04-30T00:46:36.446Z,18.07
2019-04-30T00:48:28.079Z,18.10
2019-04-30T00:49:24.863Z,18.08
2019-04-30T00:50:24.893Z,18.10
2019-04-30T00:51:26.220Z,18.03
2019-04-30T00:53:12.685Z,18.15
2019-04-30T00:54:12.941Z,18.08
2019-04-30T00:55:15.011Z,18.04
2019-04-30T00:56:15.775Z,18.10
2019-04-30T00:58:01.162Z,18.05
2019-04-30T00:59:02.506Z,18.04
2019-04-30T01:00:05.022Z,18.05
2019-04-30T01:01:08.074Z,18.05
2019-04-30T01:02:50.905Z,18.08
2019-04-30T01:03:51.479Z,17.94
2019-04-30T01:04:52.113Z,18.10
2019-04-30T01:05:52.676Z,18.10
2019-04-30T01:07:39.655Z,17.95
2019-04-30T01:08:39.282Z,17.98
2019-04-30T01:09:46.507Z,18.01
2019-04-30T01:10:41.472Z,17.97
2019-04-30T01:12:30.919Z,18.03
2019-04-30T01:13:29.134Z,18.01
2019-04-30T01:14:31.915Z,17.95
2019-04-30T01:15:31.313Z,18.00
2019-04-30T01:17:16.350Z,17.92
2019-04-30T01:18:16.924Z,17.98
2019-04-30T01:19:29.529Z,17.94
2019-04-30T01:20:19.396Z,17.97
2019-04-30T01:22:04.241Z,18.00
2019-04-30T01:23:09.892Z,18.00
2019-04-30T01:24:06.381Z,17.97
2019-04-30T01:25:11.715Z,17.90
2019-04-30T01:26:52.985Z,17.97
2019-04-30T01:27:53.558Z,18.01
2019-04-30T01:28:58.534Z,18.00
2019-04-30T01:29:55.699Z,17.98
2019-04-30T01:31:40.918Z,18.03
2019-04-30T01:32:41.405Z,17.95
2019-04-30T01:33:41.975Z,17.95
2019-04-30T01:34:44.347Z,17.95
2019-04-30T01:36:29.386Z,18.00
2019-04-30T01:38:49.045Z,17.97
2019-04-30T01:39:46.834Z,17.98
2019-04-30T01:43:44.041Z,17.89
2019-04-30T01:44:50.416Z,17.98
2019-04-30T01:45:46.169Z,17.92
2019-04-30T01:46:48.318Z,17.97
2019-04-30T01:48:51.932Z,17.87
2019-04-30T01:49:56.025Z,17.95
2019-04-30T01:50:53.450Z,17.95
2019-04-30T01:51:57.306Z,18.01
2019-04-30T01:53:43.599Z,17.97
2019-04-30T01:54:41.974Z,18.00
2019-04-30T01:55:42.547Z,17.89
2019-04-30T01:56:43.122Z,17.92
2019-04-30T01:58:29.943Z,18.00
2019-04-30T01:59:29.777Z,17.94
2019-04-30T02:00:30.351Z,17.92
2019-04-30T02:01:31.119Z,17.95
2019-04-30T02:03:16.313Z,17.98
2019-04-30T02:04:16.891Z,17.98
2019-04-30T02:05:18.879Z,17.95
2019-04-30T02:06:19.686Z,17.86
2019-04-30T02:08:04.157Z,17.86
2019-04-30T02:09:04.782Z,17.87
2019-04-30T02:10:05.406Z,17.82
2019-04-30T02:11:05.981Z,17.82
2019-04-30T02:12:51.117Z,17.87
2019-04-30T02:13:51.692Z,17.90
2019-04-30T02:14:52.266Z,17.87
2019-04-30T02:15:52.845Z,17.87
2019-04-30T02:17:38.826Z,17.98
2019-04-30T02:18:39.492Z,17.95
2019-04-30T02:19:40.103Z,17.83
2019-04-30T02:20:40.678Z,17.89
2019-04-30T02:22:25.716Z,18.01
2019-04-30T02:23:26.290Z,18.00
2019-04-30T02:24:28.777Z,17.97
2019-04-30T02:25:29.561Z,17.95
2019-04-30T02:27:14.460Z,17.85
2019-04-30T02:28:15.034Z,17.83
2019-04-30T02:29:15.606Z,17.82
2019-04-30T02:30:16.184Z,17.87
2019-04-30T02:32:01.270Z,17.85
2019-04-30T02:33:01.841Z,17.87
2019-04-30T02:34:02.466Z,17.85
2019-04-30T02:35:03.081Z,17.90
2019-04-30T02:36:49.940Z,17.80
2019-04-30T02:37:50.547Z,17.85
2019-04-30T02:38:51.115Z,17.87
2019-04-30T02:39:51.692Z,17.83
2019-04-30T02:41:36.817Z,17.89
2019-04-30T02:42:39.707Z,17.82
2019-04-30T02:43:39.853Z,17.86
2019-04-30T02:44:40.734Z,17.85
2019-04-30T02:46:25.936Z,17.95
2019-04-30T02:47:26.561Z,17.82
2019-04-30T02:48:29.285Z,17.82
2019-04-30T02:49:30.413Z,17.82
2019-04-30T02:51:14.783Z,17.89
2019-04-30T02:52:15.355Z,17.90
2019-04-30T02:53:15.928Z,17.83
2019-04-30T02:54:16.503Z,17.85
2019-04-30T02:56:02.654Z,17.89
2019-04-30T02:57:03.158Z,17.86
2019-04-30T02:58:03.734Z,17.83
2019-04-30T02:59:04.327Z,17.90
2019-04-30T03:00:49.632Z,17.90
2019-04-30T03:01:50.392Z,17.87
2019-04-30T03:02:50.996Z,17.95
2019-04-30T03:03:51.540Z,17.86
2019-04-30T03:05:39.114Z,17.89
2019-04-30T03:06:39.519Z,17.82
2019-04-30T03:07:40.671Z,17.85
2019-04-30T03:08:40.537Z,17.83
2019-04-30T03:10:25.627Z,17.94
2019-04-30T03:11:26.204Z,17.85
2019-04-30T03:12:26.776Z,17.87
2019-04-30T03:13:29.934Z,17.85
2019-04-30T03:15:13.382Z,17.94
2019-04-30T03:16:13.955Z,17.86
2019-04-30T03:17:14.527Z,17.83
2019-04-30T03:18:15.109Z,17.82
2019-04-30T03:20:03.434Z,17.87
2019-04-30T03:21:01.807Z,17.85
2019-04-30T03:22:02.402Z,17.89
2019-04-30T03:23:02.953Z,17.87
2019-04-30T03:24:50.120Z,17.85
2019-04-30T03:25:50.169Z,17.86
2019-04-30T03:26:50.849Z,17.89
2019-04-30T03:27:51.399Z,17.79
2019-04-30T03:29:36.536Z,17.87
2019-04-30T03:30:41.392Z,17.82
2019-04-30T03:31:44.148Z,17.86
2019-04-30T03:32:42.874Z,17.86
2019-04-30T03:34:26.408Z,17.83
2019-04-30T03:35:31.697Z,17.89
2019-04-30T03:36:32.376Z,17.90
2019-04-30T03:37:30.092Z,17.90
2019-04-30T03:39:15.179Z,17.87
2019-04-30T03:40:15.752Z,17.85
2019-04-30T03:41:16.324Z,17.79
2019-04-30T03:42:19.679Z,17.82
2019-04-30T03:44:17.282Z,17.82
2019-04-30T03:45:03.641Z,17.80
2019-04-30T03:46:04.212Z,17.83
2019-04-30T03:47:04.784Z,17.90
2019-04-30T03:48:50.454Z,17.90
2019-04-30T03:49:50.682Z,17.83
2019-04-30T03:50:56.625Z,17.83
2019-04-30T03:51:52.820Z,17.82
2019-04-30T03:53:42.390Z,17.82
2019-04-30T03:54:40.873Z,17.90
2019-04-30T03:55:40.334Z,17.86
2019-04-30T03:56:40.904Z,17.85
2019-04-30T03:58:25.993Z,17.82
2019-04-30T03:59:26.567Z,17.87
2019-04-30T04:00:27.141Z,17.85
2019-04-30T04:01:29.476Z,17.79
2019-04-30T04:03:13.846Z,17.78
2019-04-30T04:04:14.472Z,17.80
2019-04-30T04:05:15.051Z,17.82
2019-04-30T04:06:15.662Z,17.80
2019-04-30T04:08:00.711Z,17.83
2019-04-30T04:09:01.312Z,17.87
2019-04-30T04:10:01.888Z,17.79
2019-04-30T04:11:02.457Z,17.76
2019-04-30T04:12:49.849Z,17.78
2019-04-30T04:13:49.516Z,17.80
2019-04-30T04:14:50.986Z,17.79
2019-04-30T04:15:51.717Z,17.87
2019-04-30T04:17:39.450Z,17.82
2019-04-30T04:18:40.216Z,17.83
2019-04-30T04:19:39.992Z,17.83
2019-04-30T04:20:42.845Z,17.86
2019-04-30T04:22:26.641Z,17.78
2019-04-30T04:23:29.639Z,17.86
2019-04-30T04:24:30.247Z,17.74
2019-04-30T04:25:30.400Z,17.71
2019-04-30T04:27:15.437Z,17.82
2019-04-30T04:28:16.011Z,17.79
2019-04-30T04:29:19.366Z,17.74
2019-04-30T04:30:20.372Z,17.74
2019-04-30T04:32:04.188Z,17.87
2019-04-30T04:33:04.756Z,17.79
2019-04-30T04:34:05.329Z,17.80
2019-04-30T04:35:05.902Z,17.82
2019-04-30T04:36:50.945Z,17.78
2019-04-30T04:37:51.554Z,17.82
2019-04-30T04:38:52.177Z,17.82
2019-04-30T04:39:52.751Z,17.78
2019-04-30T04:41:39.907Z,17.78
2019-04-30T04:42:39.738Z,17.82
2019-04-30T04:43:40.244Z,17.78
2019-04-30T04:44:40.685Z,17.78
2019-04-30T04:46:25.825Z,17.85
2019-04-30T04:47:26.397Z,17.79
2019-04-30T04:48:29.608Z,17.82
2019-04-30T04:49:30.559Z,17.79
2019-04-30T04:51:33.385Z,17.85
2019-04-30T04:52:16.233Z,17.78
2019-04-30T04:53:19.329Z,17.79
2019-04-30T04:54:20.222Z,17.82
2019-04-30T04:56:04.507Z,17.74
2019-04-30T04:57:16.902Z,17.79
2019-04-30T04:58:06.697Z,17.74
2019-04-30T04:59:07.274Z,17.79
2019-04-30T05:00:52.360Z,17.74
2019-04-30T05:01:52.935Z,17.79
2019-04-30T05:02:53.509Z,17.74
2019-04-30T05:03:54.087Z,17.78
2019-04-30T05:05:39.838Z,17.78
2019-04-30T05:06:40.580Z,17.78
2019-04-30T05:07:41.146Z,17.85
2019-04-30T05:08:41.770Z,17.74
2019-04-30T05:10:26.809Z,17.78
2019-04-30T05:11:29.335Z,17.78
2019-04-30T05:12:29.723Z,17.78
2019-04-30T05:13:30.428Z,17.83
2019-04-30T05:15:15.463Z,17.78
2019-04-30T05:16:16.037Z,17.83
2019-04-30T05:17:16.610Z,17.82
2019-04-30T05:18:19.051Z,17.83
2019-04-30T05:20:03.262Z,17.78
2019-04-30T05:21:03.842Z,17.85
2019-04-30T05:22:04.417Z,17.86
2019-04-30T05:23:04.992Z,17.85
2019-04-30T05:24:50.079Z,17.87
2019-04-30T05:25:50.676Z,17.87
2019-04-30T05:26:51.225Z,17.83
2019-04-30T05:27:51.806Z,17.87
2019-04-30T05:29:38.596Z,17.87
2019-04-30T05:30:39.297Z,17.83
2019-04-30T05:31:39.954Z,17.78
2019-04-30T05:32:40.526Z,17.78
2019-04-30T05:34:25.764Z,17.80
2019-04-30T05:35:26.340Z,17.78
2019-04-30T05:36:26.912Z,17.78
2019-04-30T05:37:28.467Z,17.74
2019-04-30T05:39:13.568Z,17.85
2019-04-30T05:40:14.140Z,17.85
2019-04-30T05:41:14.714Z,17.83
2019-04-30T05:42:15.288Z,17.80
2019-04-30T05:44:00.376Z,17.86
2019-04-30T05:45:00.952Z,17.74
2019-04-30T05:46:01.524Z,17.78
2019-04-30T05:47:02.106Z,17.82
2019-04-30T05:48:49.326Z,17.80
2019-04-30T05:49:49.106Z,17.82
2019-04-30T05:50:51.770Z,17.86
2019-04-30T05:51:55.572Z,17.71
2019-04-30T05:53:39.202Z,17.82
2019-04-30T05:54:39.071Z,17.74
2019-04-30T05:55:39.542Z,17.76
2019-04-30T05:56:42.718Z,17.82
2019-04-30T05:58:26.430Z,17.79
2019-04-30T05:59:28.810Z,17.82
2019-04-30T06:00:30.274Z,17.82
2019-04-30T06:01:29.535Z,17.82
2019-04-30T06:03:24.941Z,17.79
2019-04-30T06:04:14.920Z,17.78
2019-04-30T06:05:15.493Z,17.80
2019-04-30T06:06:16.067Z,17.78
2019-04-30T06:08:01.103Z,17.79
2019-04-30T06:09:06.618Z,17.79
2019-04-30T06:10:03.243Z,17.80
2019-04-30T06:11:03.870Z,17.76
2019-04-30T06:12:49.429Z,17.71
2019-04-30T06:13:49.976Z,17.74
2019-04-30T06:14:51.748Z,17.74
2019-04-30T06:15:52.169Z,17.71
2019-04-30T06:17:39.107Z,17.74
2019-04-30T06:18:38.774Z,17.71
2019-04-30T06:19:39.349Z,17.65
2019-04-30T06:20:39.973Z,17.63
2019-04-30T06:22:25.009Z,17.71
2019-04-30T06:23:25.581Z,17.65
2019-04-30T06:24:28.168Z,17.67
2019-04-30T06:25:36.906Z,17.70
2019-04-30T06:27:12.898Z,17.71
2019-04-30T06:28:13.472Z,17.64
2019-04-30T06:29:14.047Z,17.65
2019-04-30T06:30:14.672Z,17.65
2019-04-30T06:31:59.809Z,17.67
2019-04-30T06:33:00.384Z,17.67
2019-04-30T06:34:00.958Z,17.68
2019-04-30T06:35:01.535Z,17.67
2019-04-30T06:36:51.845Z,17.70
2019-04-30T06:37:48.847Z,17.70
2019-04-30T06:38:49.560Z,17.65
2019-04-30T06:39:50.237Z,17.68
2019-04-30T06:41:35.213Z,17.72
2019-04-30T06:42:35.785Z,17.68
2019-04-30T06:43:36.358Z,17.70
2019-04-30T06:44:39.380Z,17.72
2019-04-30T06:46:23.013Z,17.65
2019-04-30T06:47:32.816Z,17.67
2019-04-30T06:48:25.210Z,17.68
2019-04-30T06:49:25.780Z,17.67
2019-04-30T06:51:10.873Z,17.72
2019-04-30T06:52:19.969Z,17.70
2019-04-30T06:53:12.059Z,17.67
2019-04-30T06:54:12.684Z,17.68
2019-04-30T06:55:58.975Z,17.70
2019-04-30T06:56:59.645Z,17.70
2019-04-30T06:58:11.508Z,17.65
2019-04-30T06:59:00.620Z,17.67
2019-04-30T07:00:45.651Z,17.65
2019-04-30T07:01:46.224Z,17.56
2019-04-30T07:02:46.799Z,17.57
2019-04-30T07:03:48.702Z,17.60
2019-04-30T07:05:33.401Z,17.60
2019-04-30T07:06:37.128Z,17.67
2019-04-30T07:07:39.025Z,17.59
2019-04-30T07:08:40.464Z,17.60
2019-04-30T07:10:23.197Z,17.56
2019-04-30T07:11:23.773Z,17.52
2019-04-30T07:12:27.836Z,17.59
2019-04-30T07:13:25.918Z,17.54
2019-04-30T07:15:13.558Z,17.57
2019-04-30T07:16:12.578Z,17.59
2019-04-30T07:17:13.154Z,17.59
2019-04-30T07:18:13.780Z,17.49
2019-04-30T07:19:59.681Z,17.60
2019-04-30T07:21:00.362Z,17.49
2019-04-30T07:22:00.940Z,17.51
2019-04-30T07:23:03.333Z,17.51
2019-04-30T07:24:49.503Z,17.60
2019-04-30T07:25:51.610Z,17.56
2019-04-30T07:26:54.767Z,17.56
2019-04-30T07:27:51.362Z,17.56
2019-04-30T07:29:36.450Z,17.57
2019-04-30T07:30:39.354Z,17.54
2019-04-30T07:31:39.296Z,17.54
2019-04-30T07:32:39.220Z,17.56
2019-04-30T07:34:24.359Z,17.56
2019-04-30T07:35:24.938Z,17.59
2019-04-30T07:36:43.296Z,17.57
2019-04-30T07:37:29.229Z,17.60
2019-04-30T07:39:13.222Z,17.64
2019-04-30T07:40:13.787Z,17.67
2019-04-30T07:41:14.360Z,17.68
2019-04-30T07:42:14.935Z,17.67
2019-04-30T07:44:00.020Z,17.67
2019-04-30T07:45:00.864Z,17.72
2019-04-30T07:46:01.207Z,17.70
2019-04-30T07:47:02.030Z,17.72
2019-04-30T07:48:46.906Z,17.70
2019-04-30T07:49:54.905Z,17.72
2019-04-30T07:50:51.741Z,17.79
2019-04-30T07:51:52.139Z,17.71
2019-04-30T07:53:36.892Z,17.76
2019-04-30T07:54:39.541Z,17.76
2019-04-30T07:55:39.397Z,17.83
2019-04-30T07:56:41.703Z,17.67
2019-04-30T07:58:25.823Z,17.78
2019-04-30T07:59:26.398Z,17.79
2019-04-30T08:00:31.002Z,17.78
2019-04-30T08:01:29.470Z,17.79
2019-04-30T08:03:14.675Z,17.85
2019-04-30T08:04:15.309Z,17.82
2019-04-30T08:05:15.882Z,17.80
2019-04-30T08:06:19.013Z,17.86
2019-04-30T08:08:20.617Z,17.85
2019-04-30T08:09:04.178Z,17.86
2019-04-30T08:10:04.788Z,17.89
2019-04-30T08:11:05.363Z,18.01
2019-04-30T08:12:51.175Z,17.94
2019-04-30T08:13:52.256Z,17.97
2019-04-30T08:14:53.053Z,18.00
2019-04-30T08:15:53.625Z,17.94
2019-04-30T08:17:38.988Z,18.01
2019-04-30T08:18:39.551Z,18.00
2019-04-30T08:19:41.035Z,18.05
2019-04-30T08:20:40.787Z,18.03
2019-04-30T08:22:25.932Z,18.08
2019-04-30T08:23:34.835Z,18.13
2019-04-30T08:24:29.057Z,18.04
2019-04-30T08:25:29.133Z,18.08
2019-04-30T08:27:14.269Z,18.07
2019-04-30T08:28:14.845Z,18.00
2019-04-30T08:29:15.420Z,18.05
2019-04-30T08:30:23.883Z,18.00
2019-04-30T08:32:01.121Z,17.97
2019-04-30T08:33:01.695Z,17.94
2019-04-30T08:34:02.320Z,17.92
2019-04-30T08:35:02.944Z,17.97
2019-04-30T08:36:48.919Z,18.00
2019-04-30T08:37:49.765Z,17.98
2019-04-30T08:38:50.111Z,17.98
2019-04-30T08:39:50.836Z,17.97
2019-04-30T08:41:35.914Z,17.94
2019-04-30T08:42:39.747Z,18.01
2019-04-30T08:43:39.394Z,18.00
2019-04-30T08:44:39.717Z,18.00
2019-04-30T08:46:24.813Z,18.00
2019-04-30T08:47:25.394Z,17.97
2019-04-30T08:48:41.706Z,17.97
2019-04-30T08:49:29.789Z,17.92
2019-04-30T08:51:14.333Z,18.00
2019-04-30T08:52:14.286Z,17.98
2019-04-30T08:53:26.768Z,17.97
2019-04-30T08:54:16.427Z,17.98
2019-04-30T08:56:01.515Z,17.98
2019-04-30T08:57:02.092Z,18.00
2019-04-30T08:58:10.074Z,18.00
2019-04-30T08:59:04.233Z,17.98
2019-04-30T09:00:49.371Z,18.01
2019-04-30T09:01:49.949Z,17.97
2019-04-30T09:02:50.572Z,17.98
2019-04-30T09:03:51.456Z,18.01
2019-04-30T09:05:38.527Z,17.97
2019-04-30T09:06:39.070Z,17.90
2019-04-30T09:07:39.661Z,17.98
2019-04-30T09:08:40.308Z,17.97
2019-04-30T09:10:25.362Z,17.97
2019-04-30T09:11:32.160Z,18.00
2019-04-30T09:12:27.504Z,18.04
2019-04-30T09:13:28.667Z,18.03
2019-04-30T09:15:13.269Z,18.03
2019-04-30T09:16:13.835Z,17.98
2019-04-30T09:17:14.409Z,18.01
2019-04-30T09:18:15.037Z,17.97
2019-04-30T09:20:00.223Z,17.98
2019-04-30T09:21:05.982Z,18.00
2019-04-30T09:22:02.370Z,17.98
2019-04-30T09:23:02.945Z,18.03
2019-04-30T09:24:49.779Z,18.13
2019-04-30T09:25:49.849Z,18.07
2019-04-30T09:26:50.422Z,18.04
2019-04-30T09:27:50.997Z,18.10
2019-04-30T09:29:36.034Z,18.04
2019-04-30T09:30:38.555Z,18.05
2019-04-30T09:31:40.797Z,18.05
2019-04-30T09:32:39.794Z,18.11
2019-04-30T09:34:24.884Z,18.10
2019-04-30T09:35:25.460Z,18.15
2019-04-30T09:36:26.036Z,18.05
2019-04-30T09:37:26.614Z,18.04
2019-04-30T09:39:11.699Z,18.10
2019-04-30T09:40:17.919Z,18.15
2019-04-30T09:41:13.843Z,18.18
2019-04-30T09:42:14.418Z,18.22
2019-04-30T09:43:59.823Z,18.13
2019-04-30T09:45:00.391Z,18.10
2019-04-30T09:46:01.014Z,18.13
2019-04-30T09:47:01.644Z,18.11
2019-04-30T09:48:46.677Z,18.22
2019-04-30T09:49:49.390Z,18.13
2019-04-30T09:50:49.745Z,18.15
2019-04-30T09:51:50.679Z,18.19
2019-04-30T09:53:35.910Z,18.16
2019-04-30T09:54:36.507Z,18.16
2019-04-30T09:55:38.947Z,18.20
2019-04-30T09:56:39.346Z,18.20
2019-04-30T09:58:24.381Z,18.23
2019-04-30T09:59:25.006Z,18.18
2019-04-30T10:00:25.581Z,18.19
2019-04-30T10:01:26.158Z,18.25
2019-04-30T10:03:11.942Z,18.23
2019-04-30T10:04:12.375Z,18.26
2019-04-30T10:05:14.028Z,18.35
2019-04-30T10:06:14.706Z,18.28
2019-04-30T10:07:59.746Z,18.33
2019-04-30T10:09:00.472Z,18.33
2019-04-30T10:10:01.074Z,18.25
2019-04-30T10:11:01.664Z,18.33
2019-04-30T10:12:46.843Z,18.20
2019-04-30T10:13:47.424Z,18.35
2019-04-30T10:14:49.405Z,18.35
2019-04-30T10:15:50.190Z,18.34
2019-04-30T10:17:33.792Z,18.38
2019-04-30T10:18:34.418Z,18.35
2019-04-30T10:19:34.990Z,18.37
2019-04-30T10:20:35.565Z,18.37
2019-04-30T10:22:20.601Z,18.40
2019-04-30T10:23:21.225Z,18.43
2019-04-30T10:24:21.805Z,18.37
2019-04-30T10:25:22.377Z,18.38
2019-04-30T10:27:12.945Z,18.38
2019-04-30T10:28:10.028Z,18.41
2019-04-30T10:29:10.619Z,18.45
2019-04-30T10:30:11.227Z,18.52
2019-04-30T10:31:56.321Z,18.53
2019-04-30T10:32:56.951Z,18.74
2019-04-30T10:33:58.627Z,18.88
2019-04-30T10:34:59.104Z,19.09
2019-04-30T10:36:44.247Z,19.24
2019-04-30T10:37:44.830Z,19.24
2019-04-30T10:38:45.409Z,19.29
2019-04-30T10:39:46.056Z,19.36
2019-04-30T10:41:31.171Z,19.45
2019-04-30T10:42:34.593Z,19.51
2019-04-30T10:43:33.327Z,19.52
2019-04-30T10:44:33.912Z,19.52
2019-04-30T10:46:18.998Z,19.48
2019-04-30T10:47:19.631Z,19.59
2019-04-30T10:48:20.213Z,19.70
2019-04-30T10:49:20.849Z,19.66
2019-04-30T10:51:05.986Z,19.79
2019-04-30T10:52:06.568Z,19.74
2019-04-30T10:53:09.034Z,19.79
2019-04-30T10:54:08.829Z,19.76
2019-04-30T10:55:53.955Z,19.91
2019-04-30T10:56:54.540Z,19.84
2019-04-30T10:57:55.120Z,19.96
2019-04-30T10:58:55.726Z,19.91
2019-04-30T11:00:40.806Z,20.16
2019-04-30T11:01:41.382Z,20.14
2019-04-30T11:02:42.061Z,20.21
2019-04-30T11:03:42.938Z,20.25
2019-04-30T11:05:29.235Z,20.31
2019-04-30T11:06:29.688Z,20.26
2019-04-30T11:07:30.274Z,20.32
2019-04-30T11:08:30.855Z,20.26
2019-04-30T11:10:15.951Z,20.43
2019-04-30T11:11:16.542Z,20.41
2019-04-30T11:12:17.119Z,20.50
2019-04-30T11:13:17.702Z,20.44
2019-04-30T11:15:02.751Z,20.59
2019-04-30T11:16:12.659Z,20.62
2019-04-30T11:17:05.134Z,20.63
2019-04-30T11:18:06.036Z,20.70
2019-04-30T11:19:51.449Z,20.74
2019-04-30T11:20:52.023Z,20.77
2019-04-30T11:21:52.777Z,20.85
2019-04-30T11:22:54.889Z,20.90
2019-04-30T11:24:53.799Z,20.90
2019-04-30T11:26:43.555Z,21.02
2019-04-30T11:27:46.344Z,21.03
2019-04-30T11:29:31.755Z,21.09
2019-04-30T11:30:32.607Z,21.14
2019-04-30T11:32:35.176Z,21.18
2019-04-30T11:34:20.387Z,21.21
2019-04-30T11:35:21.082Z,21.22
2019-04-30T11:36:21.672Z,21.25
2019-04-30T11:37:22.347Z,21.24
2019-04-30T11:39:23.324Z,21.27
2019-04-30T11:40:31.479Z,21.25
2019-04-30T11:41:31.057Z,21.33
2019-04-30T11:46:09.318Z,21.32
2019-04-30T11:47:09.897Z,21.35
2019-04-30T11:48:10.474Z,21.30
2019-04-30T11:49:11.054Z,21.32
2019-04-30T11:53:24.587Z,21.67
2019-04-30T11:54:14.773Z,21.58
2019-04-30T11:55:15.361Z,21.66
2019-04-30T11:57:00.463Z,21.60
2019-04-30T11:58:01.050Z,21.69
2019-04-30T11:59:01.696Z,21.61
2019-04-30T12:00:02.325Z,21.57
2019-04-30T12:01:47.422Z,21.57
2019-04-30T12:02:52.631Z,21.58
2019-04-30T12:03:49.831Z,21.75
2019-04-30T12:04:50.437Z,21.72
2019-04-30T12:06:35.536Z,21.66
2019-04-30T12:07:36.125Z,21.61
2019-04-30T12:08:36.711Z,21.72
2019-04-30T12:09:38.571Z,21.73
2019-04-30T12:11:23.388Z,21.77
2019-04-30T12:12:23.977Z,21.89
2019-04-30T12:13:24.619Z,22.10
2019-04-30T12:14:25.200Z,22.15
2019-04-30T12:16:10.354Z,22.30
2019-04-30T12:17:10.990Z,22.41
2019-04-30T12:18:11.630Z,22.47
2019-04-30T12:19:12.217Z,22.53
2019-04-30T12:20:57.317Z,22.63
2019-04-30T12:21:57.908Z,22.69
2019-04-30T12:22:59.183Z,22.73
2019-04-30T12:25:45.846Z,22.84
2019-04-30T12:26:46.434Z,22.94
2019-04-30T12:27:48.833Z,23.06
2019-04-30T12:34:00.234Z,23.77
2019-04-30T12:35:00.814Z,23.73
2019-04-30T12:36:01.453Z,23.73
2019-04-30T12:37:46.524Z,23.98
2019-04-30T12:41:18.255Z,24.23
2019-04-30T12:42:19.027Z,24.29
2019-04-30T12:43:19.651Z,24.29
2019-04-30T12:45:35.538Z,24.47
2019-04-30T12:46:36.131Z,24.63
2019-04-30T12:50:24.305Z,24.96
2019-04-30T12:53:42.013Z,25.18
2019-04-30T12:54:42.597Z,25.22
2019-04-30T12:56:27.581Z,25.35
2019-04-30T12:57:29.520Z,25.35
2019-04-30T12:58:29.846Z,25.40
2019-04-30T12:59:30.430Z,25.51
2019-04-30T13:02:34.200Z,25.65
2019-04-30T13:06:18.994Z,25.85
2019-04-30T13:07:20.933Z,25.98
2019-04-30T13:09:05.310Z,26.06
2019-04-30T13:10:56.403Z,26.18
2019-04-30T13:11:59.816Z,26.22
2019-04-30T13:12:59.386Z,26.25
2019-04-30T13:14:51.409Z,26.34
2019-04-30T13:15:43.583Z,26.40
2019-04-30T13:32:02.328Z,26.93
2019-04-30T13:33:02.976Z,27.02
2019-04-30T13:34:03.568Z,26.88
2019-04-30T13:35:04.202Z,27.02
2019-04-30T13:36:49.460Z,27.14
2019-04-30T13:37:50.050Z,27.08
2019-04-30T13:38:52.319Z,27.12
2019-04-30T13:39:53.122Z,27.20
2019-04-30T13:41:38.336Z,27.11
2019-04-30T13:42:39.058Z,27.10
2019-04-30T13:43:40.207Z,27.29
2019-04-30T13:44:40.810Z,27.21
2019-04-30T13:46:25.929Z,27.27
2019-04-30T13:47:26.573Z,27.25
2019-04-30T13:48:27.170Z,27.26
2019-04-30T13:49:30.003Z,27.25
2019-04-30T13:51:13.816Z,27.20
2019-04-30T13:52:14.503Z,27.25
2019-04-30T13:53:15.100Z,27.33
2019-04-30T13:56:01.722Z,27.32
2019-04-30T13:59:07.982Z,27.30
2019-04-30T14:01:10.446Z,27.35
2019-04-30T14:02:11.083Z,27.29
2019-04-30T14:06:42.848Z,27.26
2019-04-30T14:07:43.487Z,27.21
2019-04-30T14:38:00.428Z,27.00
2019-04-30T14:39:13.493Z,27.11
2019-04-30T14:40:02.516Z,27.05
2019-04-30T14:42:50.079Z,26.88
2019-04-30T14:43:51.286Z,26.59
2019-04-30T14:44:51.939Z,26.68
2019-04-30T14:45:52.368Z,26.58
2019-04-30T14:47:15.655Z,26.09
2019-04-30T14:49:21.168Z,26.52
2019-04-30T14:50:19.658Z,26.65
2019-04-30T14:52:04.768Z,26.77
2019-04-30T14:55:22.390Z,26.78
2019-04-30T14:56:22.973Z,26.78
2019-04-30T14:58:09.687Z,26.77
2019-04-30T14:59:09.670Z,26.81
2019-04-30T15:00:10.356Z,26.83
2019-04-30T15:01:10.948Z,26.84
2019-04-30T15:02:55.884Z,26.81
2019-04-30T15:03:56.476Z,26.65
2019-04-30T15:04:58.705Z,26.59
2019-04-30T15:05:59.004Z,26.55
2019-04-30T15:09:03.741Z,26.58
2019-04-30T15:10:04.329Z,26.56
2019-04-30T15:11:04.919Z,26.56
2019-04-30T15:12:05.508Z,26.41
2019-04-30T15:17:09.257Z,25.98
2019-04-30T15:18:09.887Z,25.98
2019-04-30T15:19:55.022Z,26.02
2019-04-30T15:20:55.604Z,25.96
2019-04-30T15:21:56.224Z,25.95
2019-04-30T15:22:58.640Z,25.98
2019-04-30T15:24:42.695Z,25.84
2019-04-30T15:25:43.278Z,25.78
2019-04-30T15:26:43.911Z,25.84
2019-04-30T15:27:47.621Z,25.84
2019-04-30T15:29:30.371Z,25.68
2019-04-30T15:30:30.998Z,25.69
2019-04-30T15:31:31.581Z,25.68
2019-04-30T15:32:32.161Z,25.66
2019-04-30T15:34:19.106Z,25.41
2019-04-30T15:35:32.438Z,25.17
2019-04-30T15:36:33.022Z,25.22
2019-04-30T15:38:51.929Z,25.33
2019-04-30T15:41:19.716Z,25.23
2019-04-30T15:42:20.347Z,25.26
2019-04-30T15:44:30.818Z,25.25
2019-04-30T15:45:31.447Z,25.21
2019-04-30T15:49:19.690Z,25.13
2019-04-30T15:50:20.273Z,24.89
2019-04-30T15:51:21.057Z,24.89
2019-04-30T15:52:21.838Z,24.92
2019-04-30T15:57:29.413Z,24.36
2019-04-30T15:59:13.494Z,23.95
2019-04-30T16:00:14.076Z,23.87
2019-04-30T16:01:14.659Z,23.69
2019-04-30T16:02:15.440Z,23.56
2019-04-30T16:04:00.373Z,23.48
2019-04-30T16:05:00.954Z,23.37
2019-04-30T16:06:03.475Z,23.31
2019-04-30T16:07:03.121Z,23.21
2019-04-30T16:08:48.270Z,23.12
2019-04-30T16:10:50.483Z,23.08
2019-04-30T16:11:51.070Z,23.09
2019-04-30T16:13:36.123Z,22.96
2019-04-30T16:14:36.761Z,22.94
2019-04-30T16:15:38.527Z,22.85
2019-04-30T16:16:39.140Z,22.87
2019-04-30T16:18:24.225Z,22.84
2019-04-30T16:19:24.810Z,22.83
2019-04-30T16:20:25.398Z,22.83
2019-04-30T16:21:25.981Z,22.80
2019-04-30T16:23:11.130Z,22.76
2019-04-30T16:24:11.724Z,22.73
2019-04-30T16:29:15.399Z,22.70
2019-04-30T16:30:15.988Z,22.63
2019-04-30T16:31:16.627Z,22.60
2019-04-30T16:32:17.263Z,22.55
2019-04-30T16:34:02.308Z,22.50
2019-04-30T16:36:19.197Z,22.50
2019-04-30T16:39:04.792Z,22.39
2019-04-30T16:40:05.625Z,22.43
2019-04-30T16:41:06.263Z,22.41
2019-04-30T16:42:09.014Z,22.38
2019-04-30T16:43:52.986Z,22.36
2019-04-30T16:44:53.569Z,22.25
2019-04-30T16:45:54.154Z,22.26
2019-04-30T16:46:54.736Z,22.25
2019-04-30T16:48:39.836Z,22.15
2019-04-30T16:49:40.420Z,22.13
2019-04-30T16:50:41.002Z,22.13
2019-04-30T16:51:41.584Z,22.14
2019-04-30T16:53:26.782Z,22.10
2019-04-30T16:54:28.530Z,22.13
2019-04-30T16:55:29.044Z,22.14
2019-04-30T16:56:29.580Z,22.02
2019-04-30T16:58:14.625Z,22.02
2019-04-30T16:59:15.207Z,22.06
2019-04-30T17:00:15.843Z,22.02
2019-04-30T17:01:16.423Z,22.04
2019-04-30T17:03:01.472Z,22.00
2019-04-30T17:04:02.105Z,21.98
2019-04-30T17:05:02.687Z,21.96
2019-04-30T17:06:03.267Z,21.99
2019-04-30T17:07:48.365Z,21.92
2019-04-30T17:08:49.534Z,21.92
2019-04-30T17:09:50.977Z,21.87
2019-04-30T17:10:51.585Z,21.93
2019-04-30T17:12:38.631Z,21.80
2019-04-30T17:13:38.911Z,21.83
2019-04-30T17:14:39.552Z,21.80